createdAt,value
2022-11-29T00:02:14.200Z,33.25
2022-11-29T00:04:44.163Z,33.03
2022-11-29T00:07:14.044Z,34.17
2022-11-29T00:09:43.842Z,31.83
2022-11-29T00:12:13.646Z,32.15
2022-11-29T00:14:43.981Z,30.87
2022-11-29T00:17:13.943Z,32.50
2022-11-29T00:19:45.073Z,30.67
2022-11-29T00:22:14.797Z,31.23
2022-11-29T00:24:44.794Z,33.57
2022-11-29T00:27:14.662Z,33.63
2022-11-29T00:29:44.859Z,34.63
2022-11-29T00:32:14.669Z,33.20
2022-11-29T00:34:44.674Z,34.03
2022-11-29T00:37:14.618Z,34.57
2022-11-29T00:39:44.367Z,34.67
2022-11-29T00:42:15.483Z,36.86
2022-11-29T00:44:45.536Z,33.03
2022-11-29T00:47:15.457Z,35.13
2022-11-29T00:49:45.238Z,34.63
2022-11-29T00:52:14.823Z,32.43
2022-11-29T00:54:44.869Z,35.00
2022-11-29T00:57:14.907Z,34.13
2022-11-29T00:59:44.647Z,31.70
2022-11-29T01:02:14.296Z,32.28
2022-11-29T01:04:44.431Z,32.90
2022-11-29T01:07:14.750Z,32.67
2022-11-29T01:09:44.518Z,33.03
2022-11-29T01:12:14.400Z,32.88
2022-11-29T01:14:44.516Z,31.43
2022-11-29T01:17:14.426Z,33.97
2022-11-29T01:19:50.455Z,33.20
2022-11-29T01:22:15.368Z,34.53
2022-11-29T01:24:45.298Z,32.20
2022-11-29T01:27:15.575Z,30.60
2022-11-29T01:29:45.371Z,33.43
2022-11-29T01:32:15.218Z,33.00
2022-11-29T01:34:45.285Z,30.50
2022-11-29T01:37:15.485Z,31.52
2022-11-29T01:39:45.239Z,30.33
2022-11-29T01:42:15.132Z,31.67
2022-11-29T01:45:05.621Z,29.93
2022-11-29T01:47:36.867Z,30.27
2022-11-29T01:50:09.855Z,32.50
2022-11-29T01:52:40.025Z,30.97
2022-11-29T01:55:11.117Z,29.63
2022-11-29T01:57:42.571Z,30.13
2022-11-29T02:00:17.684Z,31.75
2022-11-29T02:03:01.826Z,33.00
2022-11-29T02:05:32.700Z,32.97
2022-11-29T02:08:02.992Z,34.03
2022-11-29T02:10:35.763Z,31.17
2022-11-29T02:13:29.384Z,32.27
2022-11-29T02:16:07.857Z,33.80
2022-11-29T02:18:48.857Z,34.23
2022-11-29T02:21:33.628Z,34.70
2022-11-29T02:24:07.306Z,35.92
2022-11-29T02:26:59.109Z,36.03
2022-11-29T02:29:52.620Z,39.43
2022-11-29T02:32:53.446Z,37.20
2022-11-29T02:35:31.850Z,34.97
2022-11-29T02:38:36.977Z,36.07
2022-11-29T02:41:30.349Z,37.23
2022-11-29T02:44:20.800Z,36.00
2022-11-29T02:47:28.166Z,35.73
2022-11-29T02:50:21.919Z,36.35
2022-11-29T02:53:16.812Z,35.77
2022-11-29T02:55:55.285Z,38.47
2022-11-29T02:58:27.794Z,37.03
2022-11-29T03:01:00.693Z,37.60
2022-11-29T03:03:36.636Z,37.13
2022-11-29T03:06:29.463Z,38.28
2022-11-29T03:09:02.261Z,38.67
2022-11-29T03:11:40.891Z,37.23
2022-11-29T03:14:24.937Z,36.02
2022-11-29T03:17:06.429Z,35.00
2022-11-29T03:19:57.195Z,36.87
2022-11-29T03:25:25.968Z,37.42
2022-11-29T03:28:02.093Z,37.23
2022-11-29T03:30:35.275Z,38.25
2022-11-29T03:33:08.060Z,38.90
2022-11-29T03:35:46.562Z,36.30
2022-11-29T03:38:35.608Z,39.25
2022-11-29T03:41:19.716Z,35.53
2022-11-29T03:43:55.626Z,36.38
2022-11-29T03:46:28.141Z,36.83
2022-11-29T03:49:06.890Z,38.00
2022-11-29T03:52:12.443Z,37.03
2022-11-29T03:55:03.177Z,35.07
2022-11-29T03:57:41.873Z,37.03
2022-11-29T04:00:15.044Z,35.08
2022-11-29T04:03:00.901Z,36.95
2022-11-29T04:05:58.813Z,33.70
2022-11-29T04:08:52.447Z,35.45
2022-11-29T04:11:30.391Z,36.47
2022-11-29T04:14:34.855Z,34.10
2022-11-29T04:17:22.374Z,34.00
2022-11-29T04:20:28.113Z,35.23
2022-11-29T04:23:22.868Z,35.87
2022-11-29T04:26:22.135Z,37.03
2022-11-29T04:29:06.571Z,37.60
2022-11-29T04:31:53.991Z,38.13
2022-11-29T04:34:44.990Z,37.90
2022-11-29T04:37:23.896Z,37.20
2022-11-29T04:40:18.690Z,34.73
2022-11-29T04:43:18.475Z,33.78
2022-11-29T04:45:50.956Z,35.33
2022-11-29T04:48:29.309Z,36.40
2022-11-29T04:51:10.651Z,36.17
2022-11-29T04:54:14.991Z,34.97
2022-11-29T04:56:50.393Z,35.05
2022-11-29T04:59:28.730Z,36.30
2022-11-29T05:02:04.282Z,35.77
2022-11-29T05:04:37.043Z,34.67
2022-11-29T05:07:42.868Z,35.20
2022-11-29T05:10:42.058Z,33.15
2022-11-29T05:13:31.032Z,35.33
2022-11-29T05:16:03.883Z,34.30
2022-11-29T05:18:59.079Z,34.70
2022-11-29T05:21:46.587Z,33.13
2022-11-29T05:27:18.533Z,34.73
2022-11-29T05:29:51.616Z,32.35
2022-11-29T05:32:32.952Z,34.83
2022-11-29T05:35:10.732Z,36.05
2022-11-29T05:37:43.901Z,34.80
2022-11-29T05:40:34.522Z,34.82
2022-11-29T05:43:09.876Z,34.27
2022-11-29T05:45:57.675Z,34.63
2022-11-29T05:49:01.659Z,33.33
2022-11-29T05:51:43.322Z,36.13
2022-11-29T05:54:39.847Z,34.20
2022-11-29T05:57:29.036Z,34.13
2022-11-29T06:00:01.489Z,34.90
2022-11-29T06:02:56.798Z,36.53
2022-11-29T06:05:32.315Z,32.63
2022-11-29T06:08:24.590Z,33.53
2022-11-29T06:13:51.776Z,34.13
2022-11-29T06:16:58.460Z,34.73
2022-11-29T06:19:39.423Z,34.10
2022-11-29T06:22:25.787Z,31.97
2022-11-29T06:25:17.322Z,32.65
2022-11-29T06:28:05.167Z,29.87
2022-11-29T06:30:38.237Z,31.02
2022-11-29T06:33:17.045Z,30.13
2022-11-29T06:36:07.516Z,31.95
2022-11-29T06:38:37.385Z,31.50
2022-11-29T06:41:07.849Z,31.83
2022-11-29T06:43:37.880Z,31.43
2022-11-29T06:46:27.695Z,30.83
2022-11-29T06:49:15.035Z,31.97
2022-11-29T06:52:08.833Z,31.07
2022-11-29T06:54:56.238Z,28.03
2022-11-29T06:57:49.419Z,28.67
2022-11-29T07:00:25.595Z,30.23
2022-11-29T07:03:23.986Z,30.30
2022-11-29T07:05:53.957Z,29.37
2022-11-29T07:08:25.380Z,27.73
2022-11-29T07:10:56.031Z,28.77
2022-11-29T07:13:26.012Z,26.80
2022-11-29T07:16:01.306Z,25.93
2022-11-29T07:19:00.871Z,26.50
2022-11-29T07:21:42.264Z,25.83
2022-11-29T07:24:45.762Z,28.20
2022-11-29T07:27:38.031Z,26.70
2022-11-29T07:30:14.819Z,26.80
2022-11-29T07:33:00.364Z,26.10
2022-11-29T07:35:39.129Z,27.53
2022-11-29T07:38:26.609Z,25.88
2022-11-29T07:41:20.246Z,24.47
2022-11-29T07:44:07.907Z,25.87
2022-11-29T07:46:37.712Z,24.73
2022-11-29T07:49:09.025Z,25.27
2022-11-29T07:51:39.134Z,25.33
2022-11-29T07:54:13.297Z,26.03
2022-11-29T07:56:42.753Z,24.18
2022-11-29T07:59:12.888Z,23.57
2022-11-29T08:01:43.120Z,22.57
2022-11-29T08:04:13.779Z,24.25
2022-11-29T08:06:43.257Z,22.05
2022-11-29T08:09:13.303Z,23.65
2022-11-29T08:11:43.053Z,23.37
2022-11-29T08:14:12.787Z,22.77
2022-11-29T08:16:42.598Z,21.73
2022-11-29T08:19:12.388Z,21.67
2022-11-29T08:21:47.711Z,21.07
2022-11-29T08:24:17.519Z,22.90
2022-11-29T08:26:47.405Z,21.20
2022-11-29T08:29:17.441Z,20.97
2022-11-29T08:31:47.515Z,20.30
2022-11-29T08:34:17.001Z,21.17
2022-11-29T08:36:46.798Z,20.70
2022-11-29T08:42:05.537Z,19.87
2022-11-29T08:44:35.278Z,20.57
2022-11-29T08:47:22.530Z,19.43
2022-11-29T08:50:04.410Z,19.70
2022-11-29T08:52:54.996Z,19.27
2022-11-29T08:55:27.494Z,18.52
2022-11-29T08:58:03.188Z,19.47
2022-11-29T09:00:33.694Z,20.27
2022-11-29T09:03:22.376Z,19.35
2022-11-29T09:05:52.537Z,19.33
2022-11-29T09:08:22.743Z,20.32
2022-11-29T09:10:53.159Z,18.63
2022-11-29T09:13:22.964Z,20.13
2022-11-29T09:15:52.704Z,20.60
2022-11-29T09:18:22.654Z,19.48
2022-11-29T09:20:52.699Z,20.62
2022-11-29T09:23:22.759Z,21.10
2022-11-29T09:25:52.510Z,19.70
2022-11-29T09:28:22.247Z,19.70
2022-11-29T09:30:52.016Z,21.43
2022-11-29T09:33:22.090Z,19.62
2022-11-29T09:35:52.158Z,19.05
2022-11-29T09:38:21.742Z,19.47
2022-11-29T09:40:59.751Z,19.30
2022-11-29T09:43:41.365Z,19.87
2022-11-29T09:46:18.234Z,20.14
2022-11-29T09:48:59.724Z,19.17
2022-11-29T09:51:50.325Z,18.43
2022-11-29T09:54:37.918Z,17.70
2022-11-29T09:57:11.027Z,18.52
2022-11-29T09:59:46.761Z,17.37
2022-11-29T10:02:34.269Z,19.92
2022-11-29T10:05:29.929Z,17.15
2022-11-29T10:08:11.189Z,18.47
2022-11-29T10:10:46.228Z,18.80
2022-11-29T10:13:27.505Z,18.82
2022-11-29T10:16:09.322Z,19.03
2022-11-29T10:18:44.866Z,19.23
2022-11-29T10:21:17.553Z,19.07
2022-11-29T10:23:53.123Z,20.17
2022-11-29T10:26:24.391Z,20.47
2022-11-29T10:28:55.850Z,19.67
2022-11-29T10:31:28.842Z,20.10
2022-11-29T10:34:01.508Z,18.57
2022-11-29T10:36:37.134Z,19.25
2022-11-29T10:41:39.421Z,20.20
2022-11-29T10:44:13.767Z,18.47
2022-11-29T10:46:43.698Z,18.20
2022-11-29T10:49:16.546Z,18.12
2022-11-29T10:51:47.636Z,18.53
2022-11-29T10:54:35.532Z,19.53
2022-11-29T10:57:08.325Z,18.30
2022-11-29T10:59:38.442Z,18.20
2022-11-29T11:02:20.077Z,17.10
2022-11-29T11:04:50.257Z,18.30
2022-11-29T11:07:26.135Z,18.93
2022-11-29T11:12:30.240Z,17.27
2022-11-29T11:15:15.538Z,18.90
2022-11-29T11:18:00.502Z,18.55
2022-11-29T11:20:32.472Z,19.25
2022-11-29T11:23:05.487Z,18.48
2022-11-29T11:25:41.628Z,18.75
2022-11-29T11:28:16.350Z,17.48
2022-11-29T11:30:51.405Z,19.57
2022-11-29T11:33:24.844Z,19.65
2022-11-29T11:36:23.438Z,19.07
2022-11-29T11:39:02.335Z,19.15
2022-11-29T11:41:52.475Z,17.30
2022-11-29T11:44:58.328Z,16.93
2022-11-29T11:47:02.704Z,18.10
2022-11-29T11:49:37.958Z,18.70
2022-11-29T11:52:12.415Z,20.08
2022-11-29T11:54:45.756Z,16.95
2022-11-29T11:57:23.874Z,18.87
2022-11-29T11:59:56.264Z,18.67
2022-11-29T12:02:39.939Z,19.20
2022-11-29T12:05:15.543Z,18.17
2022-11-29T12:08:08.209Z,17.50
2022-11-29T12:10:25.737Z,18.30
2022-11-29T12:12:57.504Z,19.43
2022-11-29T12:15:33.213Z,18.50
2022-11-29T12:18:14.171Z,19.33
2022-11-29T12:20:58.271Z,17.20
2022-11-29T12:23:33.692Z,19.10
2022-11-29T12:26:10.652Z,18.53
2022-11-29T12:28:43.684Z,18.53
2022-11-29T12:31:19.351Z,18.13
2022-11-29T12:34:00.438Z,19.07
2022-11-29T12:36:45.176Z,19.55
2022-11-29T12:39:44.586Z,19.80
2022-11-29T12:42:42.840Z,17.84
2022-11-29T12:45:27.513Z,17.20
2022-11-29T12:48:09.233Z,17.40
2022-11-29T12:50:59.644Z,18.77
2022-11-29T12:53:38.027Z,19.00
2022-11-29T12:56:25.963Z,18.20
2022-11-29T12:59:21.055Z,18.10
2022-11-29T13:02:10.314Z,18.87
2022-11-29T13:04:59.622Z,18.63
2022-11-29T13:07:43.642Z,18.10
2022-11-29T13:10:24.330Z,18.52
2022-11-29T13:13:05.971Z,18.20
2022-11-29T13:15:56.562Z,18.83
2022-11-29T13:18:37.904Z,18.30
2022-11-29T13:21:16.368Z,18.33
2022-11-29T13:24:10.104Z,16.77
2022-11-29T13:26:42.717Z,17.13
2022-11-29T13:29:19.573Z,18.07
2022-11-29T13:31:49.881Z,16.73
2022-11-29T13:34:25.236Z,18.25
2022-11-29T13:37:10.107Z,17.67
2022-11-29T13:39:42.638Z,18.05
2022-11-29T13:42:15.423Z,19.13
2022-11-29T13:45:07.474Z,17.62
2022-11-29T13:47:43.103Z,17.00
2022-11-29T13:50:43.609Z,18.50
2022-11-29T13:53:25.124Z,17.23
2022-11-29T13:56:03.076Z,16.95
2022-11-29T13:58:40.363Z,16.90
2022-11-29T14:01:13.551Z,18.73
2022-11-29T14:03:46.281Z,17.27
2022-11-29T14:06:20.886Z,18.63
2022-11-29T14:09:18.395Z,18.37
2022-11-29T14:11:39.488Z,18.70
2022-11-29T14:14:18.223Z,18.50
2022-11-29T14:16:53.859Z,18.37
2022-11-29T14:19:35.463Z,20.50
2022-11-29T14:22:19.077Z,17.10
2022-11-29T14:25:00.899Z,18.57
2022-11-29T14:27:33.740Z,19.03
2022-11-29T14:30:04.028Z,18.30
2022-11-29T14:32:46.508Z,17.70
2022-11-29T14:35:24.510Z,18.52
2022-11-29T14:38:06.126Z,19.47
2022-11-29T14:40:44.514Z,18.27
2022-11-29T14:43:23.407Z,19.45
2022-11-29T14:46:14.392Z,19.97
2022-11-29T14:48:47.304Z,17.83
2022-11-29T14:51:19.791Z,18.57
2022-11-29T14:53:55.371Z,19.23
2022-11-29T14:56:38.070Z,19.40
2022-11-29T14:59:43.634Z,19.97
2022-11-29T15:02:31.685Z,20.37
2022-11-29T15:05:19.958Z,20.83
2022-11-29T15:07:55.452Z,19.73
2022-11-29T15:10:28.337Z,20.32
2022-11-29T15:13:01.290Z,20.97
2022-11-29T15:15:37.196Z,21.17
2022-11-29T15:18:19.302Z,21.55
2022-11-29T15:21:13.120Z,22.60
2022-11-29T15:23:43.975Z,21.00
2022-11-29T15:26:21.540Z,22.07
2022-11-29T15:28:51.278Z,21.97
2022-11-29T15:31:22.576Z,20.62
2022-11-29T15:33:52.305Z,21.03
2022-11-29T15:36:24.990Z,22.52
2022-11-29T15:38:58.759Z,22.30
2022-11-29T15:41:30.937Z,22.93
2022-11-29T15:44:03.498Z,22.27
2022-11-29T15:46:35.295Z,22.50
2022-11-29T15:49:18.757Z,20.90
2022-11-29T15:51:51.553Z,22.60
2022-11-29T15:54:36.407Z,23.00
2022-11-29T15:57:17.609Z,22.40
2022-11-29T15:59:53.108Z,23.30
2022-11-29T16:02:29.111Z,22.57
2022-11-29T16:05:13.616Z,22.52
2022-11-29T16:07:45.121Z,22.35
2022-11-29T16:10:19.619Z,21.77
2022-11-29T16:13:00.693Z,22.63
2022-11-29T16:15:33.479Z,21.57
2022-11-29T16:18:12.307Z,22.55
2022-11-29T16:20:42.326Z,23.27
2022-11-29T16:23:14.764Z,22.83
2022-11-29T16:26:03.966Z,23.87
2022-11-29T16:28:36.702Z,24.40
2022-11-29T16:31:06.883Z,24.77
2022-11-29T16:33:38.647Z,25.05
2022-11-29T16:36:19.997Z,26.53
2022-11-29T16:38:52.598Z,26.75
2022-11-29T16:41:34.323Z,26.53
2022-11-29T16:44:05.979Z,24.32
2022-11-29T16:46:40.351Z,27.40
2022-11-29T16:49:33.677Z,27.73
2022-11-29T16:52:05.042Z,28.03
2022-11-29T16:54:34.863Z,28.30
2022-11-29T16:57:07.197Z,27.95
2022-11-29T16:59:38.507Z,28.30
2022-11-29T17:02:13.909Z,25.80
2022-11-29T17:04:44.486Z,27.47
2022-11-29T17:07:23.432Z,28.53
2022-11-29T17:09:53.436Z,27.50
2022-11-29T17:12:23.180Z,28.67
2022-11-29T17:14:53.236Z,27.37
2022-11-29T17:17:22.989Z,28.40
2022-11-29T17:19:53.010Z,28.05
2022-11-29T17:22:22.758Z,27.60
2022-11-29T17:24:53.419Z,25.68
2022-11-29T17:27:23.804Z,26.63
2022-11-29T17:29:53.837Z,26.57
2022-11-29T17:32:26.790Z,28.00
2022-11-29T17:34:55.378Z,27.00
2022-11-29T17:37:25.549Z,27.45
2022-11-29T17:39:56.560Z,28.20
2022-11-29T17:42:26.554Z,28.10
2022-11-29T17:44:56.670Z,27.22
2022-11-29T17:47:26.103Z,26.90
2022-11-29T17:49:56.237Z,26.82
2022-11-29T17:52:25.963Z,27.93
2022-11-29T17:54:55.988Z,27.35
2022-11-29T17:57:25.727Z,27.13
2022-11-29T17:59:55.854Z,26.52
2022-11-29T18:02:25.612Z,26.63
2022-11-29T18:04:55.692Z,27.07
2022-11-29T18:07:25.542Z,27.10
2022-11-29T18:09:55.545Z,27.50
2022-11-29T18:12:25.581Z,27.35
2022-11-29T18:14:55.337Z,26.70
2022-11-29T18:17:25.084Z,27.33
2022-11-29T18:19:54.836Z,25.53
2022-11-29T18:22:24.605Z,28.52
2022-11-29T18:25:05.402Z,26.87
2022-11-29T18:27:26.064Z,26.37
2022-11-29T18:29:55.808Z,25.77
2022-11-29T18:32:25.617Z,26.17
2022-11-29T18:34:55.737Z,27.37
2022-11-29T18:37:54.455Z,26.23
2022-11-29T18:39:57.071Z,28.50
2022-11-29T18:42:26.811Z,26.33
2022-11-29T18:44:58.806Z,25.33
2022-11-29T18:47:29.599Z,26.80
2022-11-29T18:49:59.671Z,26.68
2022-11-29T18:52:30.055Z,26.60
2022-11-29T18:54:59.794Z,26.67
2022-11-29T18:57:29.564Z,28.43
2022-11-29T18:59:59.312Z,26.80
2022-11-29T19:02:28.819Z,28.37
2022-11-29T19:04:58.607Z,26.40
2022-11-29T19:07:29.269Z,27.20
2022-11-29T19:09:59.117Z,28.43
2022-11-29T19:12:29.124Z,28.92
2022-11-29T19:14:58.616Z,26.70
2022-11-29T19:17:29.424Z,27.43
2022-11-29T19:19:59.368Z,27.93
2022-11-29T19:22:29.884Z,27.48
2022-11-29T19:25:00.597Z,27.75
2022-11-29T19:27:30.319Z,26.97
2022-11-29T19:30:00.086Z,27.87
2022-11-29T19:32:29.904Z,27.65
2022-11-29T19:34:59.918Z,24.90
2022-11-29T19:37:29.659Z,26.70
2022-11-29T19:39:59.386Z,27.30
2022-11-29T19:42:28.847Z,26.90
2022-11-29T19:45:16.641Z,26.00
2022-11-29T19:47:30.038Z,26.50
2022-11-29T19:50:02.653Z,25.70
2022-11-29T19:52:31.360Z,25.57
2022-11-29T19:55:01.115Z,26.40
2022-11-29T19:57:30.844Z,26.80
2022-11-29T20:00:00.700Z,29.17
2022-11-29T20:02:32.307Z,26.65
2022-11-29T20:05:02.201Z,26.60
2022-11-29T20:07:32.020Z,26.37
2022-11-29T20:10:01.755Z,27.60
2022-11-29T20:12:32.714Z,28.03
2022-11-29T20:15:02.468Z,28.17
2022-11-29T20:17:32.589Z,29.30
2022-11-29T20:20:02.439Z,28.90
2022-11-29T20:22:32.253Z,30.62
2022-11-29T20:25:01.991Z,28.97
2022-11-29T20:27:32.027Z,29.65
2022-11-29T20:30:01.779Z,29.30
2022-11-29T20:32:31.317Z,28.60
2022-11-29T20:35:02.402Z,27.60
2022-11-29T20:37:35.933Z,26.33
2022-11-29T20:40:08.653Z,26.33
2022-11-29T20:42:41.985Z,26.80
2022-11-29T20:45:14.344Z,24.75
2022-11-29T20:47:50.323Z,25.97
2022-11-29T20:50:23.796Z,26.15
2022-11-29T20:53:02.721Z,26.57
2022-11-29T20:55:32.596Z,26.30
2022-11-29T20:58:02.414Z,25.50
2022-11-29T21:00:32.155Z,25.25
2022-11-29T21:03:01.988Z,26.83
2022-11-29T21:05:31.738Z,25.50
2022-11-29T21:08:02.334Z,26.53
2022-11-29T21:10:32.149Z,25.27
2022-11-29T21:13:02.239Z,27.53
2022-11-29T21:15:32.327Z,27.03
2022-11-29T21:18:02.317Z,26.43
2022-11-29T21:20:32.371Z,27.95
2022-11-29T21:23:05.132Z,26.00
2022-11-29T21:25:46.506Z,25.23
2022-11-29T21:28:17.706Z,25.07
2022-11-29T21:30:47.591Z,24.20
2022-11-29T21:33:17.589Z,25.43
2022-11-29T21:35:48.055Z,25.23
2022-11-29T21:38:21.134Z,24.77
2022-11-29T21:40:50.889Z,23.37
2022-11-29T21:43:22.799Z,24.00
2022-11-29T21:45:52.074Z,23.97
2022-11-29T21:48:37.712Z,22.52
2022-11-29T21:51:09.088Z,26.23
2022-11-29T21:53:40.282Z,24.25
2022-11-29T21:56:12.091Z,21.65
2022-11-29T21:58:42.163Z,23.63
2022-11-29T22:01:14.899Z,23.05
2022-11-29T22:03:45.034Z,22.63
2022-11-29T22:06:23.209Z,20.50
2022-11-29T22:08:52.948Z,19.10
2022-11-29T22:11:34.707Z,20.73
2022-11-29T22:14:15.000Z,20.15
2022-11-29T22:16:47.836Z,20.50
2022-11-29T22:19:29.435Z,19.00
2022-11-29T22:22:04.600Z,18.70
2022-11-29T22:24:36.565Z,20.33
2022-11-29T22:27:06.557Z,19.80
2022-11-29T22:29:36.372Z,20.60
2022-11-29T22:32:06.753Z,18.57
2022-11-29T22:34:36.483Z,20.20
2022-11-29T22:37:06.237Z,19.63
2022-11-29T22:39:35.720Z,19.95
2022-11-29T22:42:06.656Z,20.10
2022-11-29T22:44:36.412Z,19.20
2022-11-29T22:47:06.212Z,19.70
2022-11-29T22:49:35.772Z,20.20
2022-11-29T22:52:06.733Z,20.60
2022-11-29T22:54:36.460Z,19.17
2022-11-29T22:57:06.234Z,19.17
2022-11-29T22:59:36.332Z,18.90
2022-11-29T23:02:07.119Z,19.15
2022-11-29T23:04:37.181Z,19.32
2022-11-29T23:07:07.230Z,18.92
2022-11-29T23:09:36.670Z,18.55
2022-11-29T23:12:08.086Z,18.93
2022-11-29T23:14:37.836Z,17.20
2022-11-29T23:17:07.573Z,18.50
2022-11-29T23:19:37.306Z,17.37
2022-11-29T23:22:08.484Z,18.18
2022-11-29T23:24:39.931Z,17.47
2022-11-29T23:27:09.748Z,16.17
2022-11-29T23:29:39.467Z,16.63
2022-11-29T23:32:09.587Z,16.70
2022-11-29T23:34:39.367Z,16.70
2022-11-29T23:37:09.630Z,16.07
2022-11-29T23:39:39.362Z,16.03
2022-11-29T23:42:09.120Z,16.77
2022-11-29T23:44:38.882Z,17.67
2022-11-29T23:47:08.616Z,16.83
2022-11-29T23:49:39.743Z,17.53
2022-11-29T23:52:10.493Z,17.55
2022-11-29T23:54:40.234Z,16.33
2022-11-29T23:57:09.982Z,17.93
2022-11-29T23:59:39.725Z,17.50
